Terminal Aerodrome Forecast
Issued by NWS Tampa Bay Area, FL

Home | Current Version | Previous Version | Text Only | Print | Product List | Glossary Off
Versions: 1 2 3 4 5 6 7 8 9 10 11 12 13 14 15 16

000
FTUS42 KTBW 270523
TAFFMY
TAF
KFMY 270523Z 2706/2806 14006KT P6SM VCTS SCT020CB BKN100
     FM270800 VRB05KT P6SM FEW025 BKN200
     FM271300 VRB05KT P6SM SCT020 SCT200
     FM271800 28009KT P6SM VCTS BKN035CB BKN120
     FM272200 32007KT P6SM SCT040 BKN200
     FM280100 VRB05KT P6SM SCT050 BKN200=

USA.gov is the U.S. government's official web portal to all federal, state and local government web resources and services.